Bancroft, IA (50517)

1:50 AM CDT on August 28, 2015 (GMT -0500)
APRSWXNET | | Change Station
CLOSE
Current Station
Personal Weather Station
Location: Fenton, IA
Elevation: 1233 ft
Nearby Weather Stations

Elev 1233 ft 43.16 °N, 94.36 °W | Updated 24 minutes ago

Rain
Rain
63 °F
Feels Like 63 °F
N
4
Wind Variable Wind from ESE
Gusts 10.0 mph

Today
High -- | Low -- °F
--% Chance of Precip.
Yesterday
High -- | Low -- °F
Precip. -- in
6:36 AM 7:59 PM
Waxing Gibbous, 97% visible
Pressure 30.03 in
Visibility 10.0 miles
Clouds Few 600 ft
Scattered Clouds 9500 ft
Mostly Cloudy 12000 ft
Dew Point 62 °F
Humidity 96%
Rainfall in
Snow Depth Not available.
UV 0 out of 12
Pollen 10.50 out of 12
Air Quality Not available.
Flu Activity Not available.
METAR KAXA 280635Z AUTO 15008G14KT 10SM FEW006 SCT095 BKN120 17/17 A3003 RMK AO2
Pressure 30.03 in
Visibility 10.0 miles
Clouds Few 600 ft
Scattered Clouds 9500 ft
Mostly Cloudy 12000 ft
Dew Point 62 °F
Humidity 96%
Rainfall in
Snow Depth Not available.
UV 0 out of 12
Pollen 10.50 out of 12
Air Quality Not available.
Flu Activity Not available.
METAR KAXA 280635Z AUTO 15008G14KT 10SM FEW006 SCT095 BKN120 17/17 A3003 RMK AO2

10-Day Weather Forecast

×

Almanac

Astronomy

Aug. 28, 2015 Rise Set
Actual Time
Civil Twilight
Nautical Twilight
Astronomical Twilight
Moon
Length of Visible Light
Length of Day
Tomorrow will be .
, % of the Moon is Illuminated

Today's Extremes

State Highs State Lows

Community

WunderPhotos

Upload Photos

1,850,341 photos uploaded!

WunderBlogs® & News

Nearby

Air Quality

  Air Quality AQ Index Pollutant
Not available.

Snow Depth

Station Depth Elevation

Earthquake Activity

City Distance Mag. Time & Date
Minimum magnitude displayed is 2.5.

Coastal Water Temperatures

Place Temperature

Stations

Nearby Weather Stations

Station Location Temp. Windchill Dew Point Humidity Wind Precip. Elev Updated Type